createdAt,value
2023-04-24T00:01:56.295Z,84.31891
2023-04-24T00:06:57.861Z,84.63927
2023-04-24T00:11:59.597Z,85.2844
2023-04-24T00:17:01.358Z,84.9611
2023-04-24T00:22:02.765Z,85.2844
2023-04-24T00:27:04.278Z,84.9611
2023-04-24T00:32:05.653Z,84.63927
2023-04-24T00:37:06.946Z,84.31891
2023-04-24T00:42:08.195Z,84
2023-04-24T00:47:09.459Z,84
2023-04-24T00:52:10.924Z,83.68254
2023-04-24T00:57:12.170Z,83.05192
2023-04-24T01:02:14.132Z,83.68254
2023-04-24T01:07:15.506Z,83.36652
2023-04-24T01:12:17.013Z,83.36652
2023-04-24T01:17:18.246Z,84
2023-04-24T01:22:19.544Z,84.31891
2023-04-24T01:27:20.895Z,83.68254
2023-04-24T01:32:22.203Z,83.05192
2023-04-24T01:37:23.495Z,81.19376
2023-04-24T01:42:24.908Z,80.58537
2023-04-24T01:47:26.277Z,80.28319
2023-04-24T01:52:27.644Z,79.38462
2023-04-24T01:57:29.216Z,79.08772
2023-04-24T02:02:30.555Z,77.62256
2023-04-24T02:07:31.969Z,76.75862
2023-04-24T02:12:33.578Z,77.33333
2023-04-24T02:17:34.833Z,76.75862
2023-04-24T02:22:36.108Z,74.23256
2023-04-24T02:27:37.580Z,72.87029
2023-04-24T02:32:38.984Z,73.41176
2023-04-24T02:37:40.255Z,73.41176
2023-04-24T02:42:41.856Z,73.95781
2023-04-24T02:47:43.373Z,75.06383
2023-04-24T02:52:44.679Z,75.90578
2023-04-24T02:57:46.087Z,75.90578
2023-04-24T03:02:47.431Z,77.62256
2023-04-24T03:07:48.949Z,77.04536
2023-04-24T03:12:50.512Z,77.62256
2023-04-24T03:17:51.889Z,77.91304
2023-04-24T03:22:53.250Z,77.91304
2023-04-24T03:27:54.855Z,77.33333
2023-04-24T03:32:56.451Z,77.62256
2023-04-24T03:37:57.854Z,77.33333
2023-04-24T03:42:59.356Z,77.04536
2023-04-24T03:48:00.727Z,77.91304
2023-04-24T03:53:02.198Z,77.91304
2023-04-24T03:58:03.692Z,79.68282
2023-04-24T04:03:05.559Z,80.58537
2023-04-24T04:08:07.353Z,80.28319
2023-04-24T04:13:08.916Z,79.98234
2023-04-24T04:18:10.406Z,79.98234
2023-04-24T04:23:12.012Z,79.98234
2023-04-24T04:28:13.743Z,79.98234
2023-04-24T04:33:15.169Z,79.98234
2023-04-24T04:38:16.435Z,80.58537
2023-04-24T04:43:17.792Z,81.19376
2023-04-24T04:48:19.145Z,80.28319
2023-04-24T04:53:20.825Z,79.38462
2023-04-24T04:58:22.228Z,79.68282
2023-04-24T05:03:23.839Z,80.28319
2023-04-24T05:08:27.415Z,79.38462
2023-04-24T05:13:39.013Z,79.08772
2023-04-24T05:18:41.374Z,78.79212
2023-04-24T05:23:42.790Z,80.28319
2023-04-24T05:28:44.055Z,79.08772
2023-04-24T05:33:45.316Z,83.68254
2023-04-24T05:38:46.683Z,84.9611
2023-04-24T05:43:48.056Z,86.59259
2023-04-24T05:48:49.484Z,91.01671
2023-04-24T05:53:51.042Z,95.72414
2023-04-24T05:58:52.372Z,98.77387
2023-04-24T06:03:53.890Z,99.55556
2023-04-24T06:08:55.596Z,92.07692
2023-04-24T06:13:57.302Z,105.25654
2023-04-24T06:18:58.887Z,97.23383
2023-04-24T06:24:01.256Z,98.77387
2023-04-24T06:29:02.560Z,101.94872
2023-04-24T06:34:03.954Z,98
2023-04-24T06:39:05.252Z,104
2023-04-24T06:44:06.835Z,96.47525
2023-04-24T06:49:08.224Z,101.94872
2023-04-24T06:54:09.511Z,92.79227
2023-04-24T06:59:10.907Z,102.35476
2023-04-24T07:04:12.279Z,102.35476
2023-04-24T07:09:13.776Z,108.26667
2023-04-24T07:14:15.245Z,118.50425
2023-04-24T07:19:16.704Z,111.84741
2023-04-24T07:24:19.024Z,142.70968
2023-04-24T07:29:21.259Z,142.70968
2023-04-24T07:34:22.805Z,146.63158
2023-04-24T07:39:24.346Z,155.68385
2023-04-24T07:44:25.635Z,145.30719
2023-04-24T07:49:26.862Z,155.68385
2023-04-24T07:54:28.159Z,160.14035
2023-04-24T07:59:29.619Z,165.58273
2023-04-24T08:04:31.187Z,153.52381
2023-04-24T08:09:32.648Z,170.47059
2023-04-24T08:14:33.904Z,171.30627
2023-04-24T08:19:35.477Z,177.33333
2023-04-24T08:24:36.900Z,165.58273
2023-04-24T08:29:38.373Z,168
2023-04-24T08:34:39.777Z,172.99628
2023-04-24T08:39:41.164Z,178.22053
2023-04-24T08:44:42.847Z,180.01533
2023-04-24T08:49:44.522Z,183.68872
2023-04-24T08:54:46.055Z,191.38956
2023-04-24T08:59:47.739Z,196.45902
2023-04-24T09:04:49.421Z,202.82353
2023-04-24T09:09:50.822Z,199.60166
2023-04-24T09:14:52.221Z,186.51969
2023-04-24T09:19:53.908Z,191.38956
2023-04-24T09:24:55.483Z,202.82353
2023-04-24T09:29:57.087Z,222.73303
2023-04-24T09:34:58.459Z,211.82609
2023-04-24T09:39:59.762Z,226.56881
2023-04-24T09:45:12.098Z,259.89744
2023-04-24T09:50:16.153Z,271.65957
2023-04-24T09:55:18.454Z,227.87097
2023-04-24T10:00:20.293Z,273.41176
2023-04-24T10:05:21.871Z,280.61202
2023-04-24T10:10:23.431Z,290.06742
2023-04-24T10:15:25.320Z,278.78261
2023-04-24T10:20:26.892Z,308.49704
2023-04-24T10:25:28.238Z,0
2023-04-24T10:30:29.549Z,0
2023-04-24T10:35:30.980Z,275.1828
2023-04-24T10:40:32.241Z,269.92593
2023-04-24T10:45:33.616Z,256.69036
2023-04-24T10:50:35.173Z,0
2023-04-24T10:55:36.602Z,278.78261
2023-04-24T11:00:38.100Z,258.28571
2023-04-24T11:05:39.489Z,255.11111
2023-04-24T11:10:41.020Z,243.02913
2023-04-24T11:15:42.499Z,234.56604
2023-04-24T11:20:43.788Z,252
2023-04-24T11:25:45.525Z,253.54774
2023-04-24T11:30:47.224Z,0
2023-04-24T11:35:48.790Z,241.58454
2023-04-24T11:40:50.401Z,0
2023-04-24T11:45:52.307Z,0
2023-04-24T11:50:53.745Z,0
2023-04-24T11:55:55.348Z,0
2023-04-24T12:00:56.706Z,0
2023-04-24T12:05:58.314Z,0
2023-04-24T12:10:59.679Z,244.4878
2023-04-24T12:16:01.059Z,0
2023-04-24T12:21:02.499Z,0
2023-04-24T12:26:04.578Z,255.11111
2023-04-24T12:31:06.260Z,252
2023-04-24T12:36:07.614Z,0
2023-04-24T12:41:09.088Z,233.20188
2023-04-24T12:46:10.749Z,0
2023-04-24T12:51:12.080Z,0
2023-04-24T12:56:14.262Z,0
2023-04-24T13:01:15.745Z,0
2023-04-24T13:06:17.352Z,0
2023-04-24T13:11:18.920Z,0
2023-04-24T13:16:20.282Z,0
2023-04-24T13:21:21.896Z,0
2023-04-24T13:26:23.681Z,0
2023-04-24T13:31:25.262Z,0
2023-04-24T13:36:26.691Z,0
2023-04-24T13:41:27.973Z,0
2023-04-24T13:46:29.430Z,0
2023-04-24T13:51:31.226Z,0
2023-04-24T13:56:33.265Z,0
2023-04-24T14:01:34.665Z,0
2023-04-24T14:06:36.315Z,0
2023-04-24T14:11:37.826Z,0
2023-04-24T14:16:39.582Z,0
2023-04-24T14:21:41.178Z,0
2023-04-24T14:26:42.611Z,0
2023-04-24T14:31:44.252Z,0
2023-04-24T14:36:45.659Z,0
2023-04-24T14:41:47.227Z,216.56637
2023-04-24T14:46:48.857Z,0
2023-04-24T14:51:50.167Z,0
2023-04-24T14:56:51.484Z,0
2023-04-24T15:01:59.137Z,0
2023-04-24T15:07:10.430Z,243.02913
2023-04-24T15:12:12.025Z,237.33333
2023-04-24T15:17:13.656Z,243.02913
2023-04-24T15:22:16.115Z,199.60166
2023-04-24T15:27:17.623Z,167.18841
2023-04-24T15:32:19.292Z,162.43972
2023-04-24T15:37:20.650Z,203.91561
2023-04-24T15:42:21.916Z,219
2023-04-24T15:47:23.449Z,186.51969
2023-04-24T15:52:24.741Z,178.22053
2023-04-24T15:57:26.120Z,152.81356
2023-04-24T16:02:27.558Z,138.93671
2023-04-24T16:07:29.225Z,129.54217
2023-04-24T16:12:30.470Z,127.8806
2023-04-24T16:17:31.809Z,135.90031
2023-04-24T16:22:33.384Z,127.33333
2023-04-24T16:27:34.934Z,132.95706
2023-04-24T16:32:36.651Z,127.8806
2023-04-24T16:37:38.349Z,117.52113
2023-04-24T16:42:39.906Z,118.0113
2023-04-24T16:47:41.428Z,114.63712
2023-04-24T16:52:42.826Z,111.84741
2023-04-24T16:57:44.152Z,112.30601
2023-04-24T17:02:45.860Z,112.30601
2023-04-24T17:07:47.545Z,110.93767
2023-04-24T17:12:49.122Z,107.39523
2023-04-24T17:17:50.902Z,99.16373
2023-04-24T17:22:52.232Z,98.77387
2023-04-24T17:27:53.592Z,113.23077
2023-04-24T17:32:55.084Z,135.90031
2023-04-24T17:37:56.385Z,157.88889
2023-04-24T17:42:57.775Z,158.63415
2023-04-24T17:47:59.397Z,173.85075
2023-04-24T17:53:00.812Z,196.45902
2023-04-24T17:58:02.374Z,195.42857
2023-04-24T18:03:03.975Z,201.74059
2023-04-24T18:08:05.422Z,209.51724
2023-04-24T18:13:07.106Z,224
2023-04-24T18:18:08.713Z,222.73303
2023-04-24T18:23:10.370Z,234.56604
2023-04-24T18:28:11.931Z,215.36564
2023-04-24T18:33:13.534Z,205.01695
2023-04-24T18:38:15.096Z,184.625
2023-04-24T18:43:16.625Z,167.18841
2023-04-24T18:48:18.222Z,169.64103
2023-04-24T18:53:19.813Z,173.85075
2023-04-24T18:58:21.066Z,166.38267
2023-04-24T19:03:22.968Z,166.38267
2023-04-24T19:08:24.507Z,162.43972
2023-04-24T19:13:25.921Z,153.52381
2023-04-24T19:18:27.305Z,168
2023-04-24T19:23:28.889Z,182.75969
2023-04-24T19:28:30.255Z,186.51969
2023-04-24T19:33:31.534Z,193.39271
2023-04-24T19:38:33.100Z,214.17544
2023-04-24T19:43:34.604Z,235.94313
2023-04-24T19:48:36.328Z,250.46766
2023-04-24T19:53:37.873Z,241.58454
2023-04-24T19:58:39.533Z,227.87097
2023-04-24T20:03:41.334Z,207.24786
2023-04-24T20:08:42.859Z,193.39271
2023-04-24T20:13:44.185Z,191.38956
2023-04-24T20:18:45.756Z,189.41833
2023-04-24T20:23:47.130Z,189.41833
2023-04-24T20:28:48.661Z,180.01533
2023-04-24T20:33:50.440Z,173.85075
2023-04-24T20:38:51.983Z,164.78853
2023-04-24T20:43:53.583Z,177.33333
2023-04-24T20:48:54.963Z,187.47826
2023-04-24T20:53:56.536Z,178.22053
2023-04-24T20:58:57.916Z,179.1145
2023-04-24T21:03:59.497Z,180.01533
2023-04-24T21:09:00.997Z,182.75969
2023-04-24T21:14:02.275Z,176.45283
2023-04-24T21:19:03.846Z,182.75969
2023-04-24T21:24:05.152Z,215.36564
2023-04-24T21:29:06.509Z,200.66667
2023-04-24T21:34:08.074Z,190.4
2023-04-24T21:39:09.687Z,188.44444
2023-04-24T21:44:11.277Z,191.38956
2023-04-24T21:49:12.832Z,172.99628
2023-04-24T21:54:14.427Z,160.14035
2023-04-24T21:59:15.977Z,161.66784
2023-04-24T22:04:17.821Z,154.23891
2023-04-24T22:09:19.507Z,160.90141
2023-04-24T22:14:21.138Z,160.14035
2023-04-24T22:19:22.906Z,158.63415
2023-04-24T22:24:24.685Z,150.02007
2023-04-24T22:29:26.422Z,150.71141
2023-04-24T22:34:27.982Z,147.30033
2023-04-24T22:39:29.363Z,159.38462
2023-04-24T22:44:30.670Z,168.81752
2023-04-24T22:49:32.020Z,181.83784
2023-04-24T22:54:33.325Z,192.3871
2023-04-24T22:59:34.767Z,201.74059
2023-04-24T23:04:36.515Z,191.38956
2023-04-24T23:09:37.781Z,188.44444
2023-04-24T23:14:39.128Z,190.4
2023-04-24T23:19:40.605Z,190.4
2023-04-24T23:24:41.842Z,165.58273
2023-04-24T23:29:43.315Z,124.11696
2023-04-24T23:34:44.824Z,111.84741
2023-04-24T23:39:46.360Z,119.49858
2023-04-24T23:44:47.920Z,161.66784
2023-04-24T23:49:49.652Z,179.1145
2023-04-24T23:54:51.190Z,174.71161
2023-04-24T23:59:52.982Z,180.01533
